createdAt,value
2023-04-10T00:29:33.736Z,17.23
2023-04-10T00:32:00.359Z,15.60
2023-04-10T00:34:27.043Z,15.75
2023-04-10T00:36:53.697Z,15.48
2023-04-10T00:39:20.572Z,17.80
2023-04-10T00:41:47.208Z,17.95
2023-04-10T00:44:13.815Z,17.98
2023-04-10T00:46:40.614Z,17.58
2023-04-10T00:49:07.507Z,17.38
2023-04-10T00:51:34.219Z,16.88
2023-04-10T00:54:02.425Z,15.82
2023-04-10T00:56:34.087Z,14.60
2023-04-10T00:59:00.790Z,16.02
2023-04-10T01:01:27.468Z,16.70
2023-04-10T01:03:55.239Z,14.90
2023-04-10T01:06:56.118Z,12.85
2023-04-10T01:09:29.938Z,12.45
2023-04-10T01:12:18.247Z,14.02
2023-04-10T01:15:32.601Z,16.70
2023-04-10T01:18:07.693Z,12.88
2023-04-10T01:20:38.009Z,15.75
2023-04-10T01:23:22.592Z,14.93
2023-04-10T01:26:10.488Z,15.00
2023-04-10T01:29:02.102Z,14.32
2023-04-10T01:31:37.832Z,13.45
2023-04-10T01:34:11.736Z,14.02
2023-04-10T01:36:48.942Z,12.88
2023-04-10T01:39:19.848Z,13.80
2023-04-10T01:41:51.320Z,14.98
2023-04-10T01:44:20.072Z,14.07
2023-04-10T01:46:49.340Z,14.02
2023-04-10T01:49:17.979Z,13.05
2023-04-10T01:51:46.468Z,12.65
2023-04-10T01:54:13.786Z,13.43
2023-04-10T01:56:41.811Z,12.18
2023-04-10T01:59:08.713Z,12.05
2023-04-10T02:01:35.435Z,11.55
2023-04-10T02:04:02.437Z,13.80
2023-04-10T02:06:49.841Z,12.98
2023-04-10T02:09:26.801Z,12.15
2023-04-10T02:12:04.368Z,13.00
2023-04-10T02:14:32.713Z,12.35
2023-04-10T02:17:01.473Z,14.13
2023-04-10T02:19:28.851Z,12.02
2023-04-10T02:21:57.003Z,11.10
2023-04-10T02:24:23.861Z,13.32
2023-04-10T02:26:52.442Z,12.60
2023-04-10T02:29:19.810Z,12.52
2023-04-10T02:31:47.301Z,15.57
2023-04-10T02:34:14.148Z,18.20
2023-04-10T02:36:40.824Z,14.57
2023-04-10T02:39:08.330Z,14.20
2023-04-10T02:41:35.084Z,13.43
2023-04-10T02:44:01.838Z,13.15
2023-04-10T02:46:28.559Z,13.20
2023-04-10T02:48:55.453Z,11.80
2023-04-10T02:51:22.102Z,12.27
2023-04-10T02:53:48.811Z,11.55
2023-04-10T02:56:15.537Z,12.85
2023-04-10T02:58:45.560Z,12.95
2023-04-10T03:01:13.948Z,12.80
2023-04-10T03:03:41.038Z,13.90
2023-04-10T03:06:09.550Z,17.25
2023-04-10T03:08:36.401Z,13.48
2023-04-10T03:11:03.091Z,9.73
2023-04-10T03:13:29.761Z,12.80
2023-04-10T03:15:56.488Z,12.65
2023-04-10T03:18:23.274Z,11.85
2023-04-10T03:20:50.883Z,12.70
2023-04-10T03:23:17.630Z,13.75
2023-04-10T03:25:44.334Z,12.05
2023-04-10T03:28:11.178Z,12.98
2023-04-10T03:30:37.834Z,12.55
2023-04-10T03:33:04.485Z,12.35
2023-04-10T03:35:31.522Z,12.52
2023-04-10T03:38:27.656Z,13.65
2023-04-10T03:41:00.783Z,14.48
2023-04-10T03:43:27.460Z,14.23
2023-04-10T03:45:54.062Z,13.63
2023-04-10T03:48:20.939Z,12.90
2023-04-10T03:50:47.808Z,15.00
2023-04-10T03:53:14.479Z,11.68
2023-04-10T03:55:41.238Z,11.77
2023-04-10T03:58:08.327Z,15.95
2023-04-10T04:00:35.204Z,16.10
2023-04-10T04:03:05.105Z,13.68
2023-04-10T04:05:32.342Z,14.38
2023-04-10T04:07:59.043Z,12.52
2023-04-10T04:10:25.821Z,14.38
2023-04-10T04:12:52.495Z,14.90
2023-04-10T04:15:19.143Z,15.75
2023-04-10T04:17:46.779Z,16.73
2023-04-10T04:20:13.496Z,14.63
2023-04-10T04:22:40.138Z,16.10
2023-04-10T04:25:10.850Z,14.77
2023-04-10T04:27:37.780Z,13.45
2023-04-10T04:30:05.174Z,13.95
2023-04-10T04:32:31.869Z,17.60
2023-04-10T04:34:58.478Z,14.48
2023-04-10T04:37:25.157Z,15.55
2023-04-10T04:39:51.803Z,16.52
2023-04-10T04:42:18.484Z,16.90
2023-04-10T04:44:45.442Z,16.35
2023-04-10T04:47:12.058Z,27.70
2023-04-10T04:49:38.715Z,16.20
2023-04-10T04:52:05.651Z,16.42
2023-04-10T04:54:32.234Z,15.35
2023-04-10T04:56:58.845Z,14.93
2023-04-10T04:59:25.538Z,15.60
2023-04-10T05:01:52.281Z,15.88
2023-04-10T05:04:20.747Z,16.08
2023-04-10T05:06:47.413Z,16.35
2023-04-10T05:09:14.168Z,14.65
2023-04-10T05:11:41.085Z,11.98
2023-04-10T05:14:07.874Z,13.95
2023-04-10T05:16:34.575Z,19.17
2023-04-10T05:19:10.634Z,14.93
2023-04-10T05:21:38.228Z,15.82
2023-04-10T05:24:05.087Z,10.63
2023-04-10T05:26:31.812Z,14.73
2023-04-10T05:28:58.440Z,16.23
2023-04-10T05:31:25.396Z,14.73
2023-04-10T05:33:51.996Z,14.77
2023-04-10T05:36:18.703Z,12.05
2023-04-10T05:38:45.404Z,12.25
2023-04-10T05:41:12.005Z,12.77
2023-04-10T05:43:38.632Z,12.48
2023-04-10T05:46:05.682Z,12.50
2023-04-10T05:48:32.347Z,15.90
2023-04-10T05:50:59.044Z,12.75
2023-04-10T05:53:33.011Z,13.77
2023-04-10T05:55:59.848Z,13.65
2023-04-10T05:58:27.234Z,13.45
2023-04-10T06:00:54.447Z,13.77
2023-04-10T06:03:21.653Z,14.40
2023-04-10T06:05:48.491Z,15.30
2023-04-10T06:08:15.173Z,15.88
2023-04-10T06:10:41.824Z,13.82
2023-04-10T06:13:10.636Z,13.82
2023-04-10T06:15:38.240Z,12.90
2023-04-10T06:18:05.072Z,12.23
2023-04-10T06:20:31.775Z,12.68
2023-04-10T06:22:59.144Z,12.07
2023-04-10T06:25:26.712Z,12.95
2023-04-10T06:27:53.477Z,13.05
2023-04-10T06:30:20.306Z,12.20
2023-04-10T06:32:47.014Z,12.68
2023-04-10T06:35:13.821Z,12.70
2023-04-10T06:37:42.320Z,14.02
2023-04-10T06:40:11.346Z,14.40
2023-04-10T06:42:38.368Z,13.88
2023-04-10T06:45:05.566Z,11.70
2023-04-10T06:47:32.289Z,11.57
2023-04-10T06:49:59.143Z,12.20
2023-04-10T06:52:26.574Z,11.38
2023-04-10T06:54:53.208Z,10.32
2023-04-10T06:57:28.940Z,12.57
2023-04-10T06:59:57.431Z,13.48
2023-04-10T07:02:47.131Z,16.95
2023-04-10T07:05:42.239Z,12.55
2023-04-10T07:08:11.927Z,11.77
2023-04-10T22:37:25.285Z,17.35
2023-04-10T22:39:52.054Z,17.38
2023-04-10T22:42:18.696Z,18.58
2023-04-10T22:44:45.591Z,17.55
2023-04-10T22:47:12.284Z,16.83
2023-04-10T22:49:39.027Z,18.20
2023-04-10T22:52:05.765Z,17.65
2023-04-10T22:54:32.439Z,18.25
2023-04-10T22:56:59.050Z,18.58
2023-04-10T22:59:25.778Z,18.60
2023-04-10T23:01:52.478Z,19.10
2023-04-10T23:04:19.233Z,19.58
2023-04-10T23:06:45.932Z,20.23
2023-04-10T23:09:12.833Z,16.15
2023-04-10T23:11:39.524Z,14.13
2023-04-10T23:14:06.230Z,15.23
2023-04-10T23:16:32.956Z,13.73
2023-04-10T23:18:59.691Z,14.93
2023-04-10T23:21:27.343Z,14.27
2023-04-10T23:23:54.027Z,15.77
2023-04-10T23:26:20.905Z,15.80
2023-04-10T23:28:47.749Z,15.90
2023-04-10T23:31:14.636Z,17.15
2023-04-10T23:33:41.612Z,22.88
2023-04-10T23:36:08.590Z,21.92
2023-04-10T23:38:35.187Z,19.90
2023-04-10T23:41:03.023Z,18.30
2023-04-10T23:43:29.740Z,17.02
2023-04-10T23:45:56.457Z,17.15
2023-04-10T23:48:23.161Z,15.82
2023-04-10T23:50:49.789Z,17.90
2023-04-10T23:53:16.666Z,14.45
2023-04-10T23:55:43.487Z,15.75
2023-04-10T23:58:10.596Z,15.98
